Flight Track Log - Related Links

Times and Time Zones

All times are in EDT time to prevent confusion due to time zone crossing. See the KFS726 flight status page for this flight to view local times or setup timezone preferences in your user account.

Time Position Orientation Groundspeed Altitude Reporting Facility
EDT Latitude Longitude Course Direction KTS MPH feet Rate Location/Type
Tue 04:13:29 PM 42.7256 -73.8053 231° Southwest 150 173 1,000  Level Boston Center
Tue 04:14:35 PM 42.6958 -73.8553 231° Southwest 223 257 2,300 2,060 Climbing Boston Center
Tue 04:16:15 PM 42.7125 -74.0169 278° West 285 328 6,700 2,625 Climbing Boston Center
Tue 04:17:15 PM 42.7256 -74.1161 280° West 279 321 9,300 1,900 Climbing Boston Center
Tue 04:18:15 PM 42.7322 -74.2264 275° West 279 321 10,500 1,650 Climbing Boston Center
Tue 04:19:15 PM 42.7178 -74.3506 261° West 310 357 12,600 1,700 Climbing Boston Center
Tue 04:20:15 PM 42.6886 -74.4739 252° West 337 388 13,900 1,339 Climbing Boston Center
Tue 04:21:16 PM 42.6633 -74.6000 255° West 366 421 15,300 1,537 Climbing Boston Center
Tue 04:22:16 PM 42.6353 -74.7572 256° West 392 451 17,000 1,412 Climbing Boston Center
Tue 04:23:15 PM 42.6136 -74.8919 258° West 404 465 18,100 1,300 Climbing Boston Center
Tue 04:24:16 PM 42.5811 -75.0456 254° West 412 474 19,600 1,550 Climbing Boston Center
Tue 04:25:15 PM 42.4869 -75.1486 219° Southwest 405 466 21,200 1,634 Climbing Boston Center
Tue 04:27:27 PM 42.2747 -75.3417 214° Southwest 441 507 24,800 1,399 Climbing New York Center
Tue 04:28:28 PM 42.1753 -75.4328 214° Southwest 453 521 25,700 590 Climbing New York Center
Tue 04:29:29 PM 42.0697 -75.5258 213° Southwest 459 528 26,000 149 Climbing New York Center
Tue 04:30:29 PM 41.9639 -75.6214 214° Southwest 459 528 26,000  Level New York Center
Tue 04:31:27 PM 41.8558 -75.7164 213° Southwest 459 528 26,000  Level New York Center
Tue 04:32:28 PM 41.7775 -75.8442 231° Southwest 444 511 26,000 1,091 Level New York Center
Tue 04:33:28 PM 41.7456 -76.0031 255° West 435 501 28,200 1,785 Climbing New York Center
Tue 04:34:29 PM 41.7139 -76.1533 254° West 430 495 29,600 1,091 Climbing New York Center
Tue 04:35:29 PM 41.6394 -76.2778 231° Southwest 425 489 30,400 872 Climbing New York Center
Tue 04:36:26 PM 41.5236 -76.3486 205° Southwest 425 489 31,300 915 Climbing New York Center
Tue 04:37:27 PM 41.3931 -76.4264 204° Southwest 450 518 32,200 645 Climbing New York Center
Tue 04:38:27 PM 41.2728 -76.5019 205° Southwest 468 539 32,600 496 Climbing New York Center
Tue 04:39:28 PM 41.1550 -76.5664 202° Southwest 474 545 33,200 590 Climbing New York Center
Tue 04:40:29 PM 41.0369 -76.6386 205° Southwest 469 540 33,800 403 Climbing New York Center
Tue 04:41:27 PM 40.9144 -76.7106 204° Southwest 469 540 34,000 102 Climbing New York Center
Tue 04:42:27 PM 40.7922 -76.7794 203° Southwest 474 545 34,000  Level New York Center
Tue 04:43:29 PM 40.6697 -76.8536 205° Southwest 479 551 34,000  Level New York Center
Tue 04:44:27 PM 40.5469 -76.9275 205° Southwest 479 551 34,000 -50 Level New York Center
Tue 04:45:28 PM 40.4247 -76.9956 203° Southwest 479 551 33,900  Descending New York Center
Tue 04:46:28 PM 40.3017 -77.0744 206° Southwest 490 564 34,000 50 Climbing New York Center
Tue 04:47:29 PM 40.1714 -77.1331 199° South 490 564 34,000  Level New York Center
Tue 04:49:34 PM 39.8958 -77.2656 200° South 503 579 34,000  Level Washington Center
Tue 04:50:34 PM 39.7636 -77.3300 201° Southwest 503 579 34,000  Level Washington Center
Tue 04:51:34 PM 39.6336 -77.3942 201° Southwest 508 585 34,000  Level Washington Center
Tue 04:52:34 PM 39.5014 -77.4581 200° South 508 585 34,000  Level Washington Center
Tue 04:53:34 PM 39.3711 -77.5219 201° Southwest 513 590 34,000  Level Washington Center
Tue 04:54:34 PM 39.2367 -77.5853 200° South 513 590 34,000  Level Washington Center
Tue 04:56:34 PM 38.9719 -77.7117 200° South 513 590 34,000  Level Washington Center
Tue 04:57:34 PM 38.8542 -77.7642 199° South 513 590 34,000  Level Washington Center
Tue 04:58:34 PM 38.7175 -77.8319 201° Southwest 519 597 34,000  Level Washington Center
Tue 04:59:34 PM 38.5892 -77.8919 200° South 514 592 34,000  Level Washington Center
Tue 05:00:34 PM 38.4586 -77.9514 200° South 509 586 34,000  Level Washington Center
Tue 05:01:34 PM 38.3383 -78.0322 208° Southwest 502 578 34,000  Level Washington Center
Tue 05:02:34 PM 38.2319 -78.1319 216° Southwest 491 565 34,000  Level Washington Center
Tue 05:03:34 PM 38.1214 -78.2286 215° Southwest 491 565 34,000  Level Washington Center
Tue 05:04:34 PM 38.0128 -78.3250 215° Southwest 486 559 34,000  Level Washington Center
Tue 05:05:34 PM 37.9086 -78.4158 215° Southwest 479 551 34,000  Level Washington Center
Tue 05:06:34 PM 37.8000 -78.5117 215° Southwest 484 557 34,000  Level Washington Center
Tue 05:07:34 PM 37.6892 -78.6044 214° Southwest 484 557 34,000  Level Washington Center
Tue 05:08:34 PM 37.5783 -78.6969 213° Southwest 484 557 34,000  Level Washington Center
Tue 05:09:34 PM 37.4589 -78.7994 214° Southwest 479 551 34,000  Level Washington Center
Tue 05:10:34 PM 37.3500 -78.8917 214° Southwest 479 551 34,000  Level Washington Center
Tue 05:11:34 PM 37.2431 -78.9836 214° Southwest 479 551 34,000  Level Washington Center
Tue 05:12:34 PM 37.1319 -79.0722 212° Southwest 479 551 34,000  Level Washington Center
Tue 05:13:34 PM 37.0269 -79.1639 215° Southwest 479 551 34,000  Level Washington Center
Tue 05:14:34 PM 36.9178 -79.2550 214° Southwest 479 551 34,000  Level Washington Center
Tue 05:15:34 PM 36.8236 -79.3361 215° Southwest 474 545 34,000  Level Washington Center
Tue 05:16:34 PM 36.7144 -79.4267 214° Southwest 474 545 34,000  Level Washington Center
Tue 05:18:29 PM 36.5075 -79.5936 213° Southwest 467 537 34,000  Level Atlanta Center
Tue 05:19:29 PM 36.4022 -79.6819 214° Southwest 467 537 34,000  Level Atlanta Center
Tue 05:20:29 PM 36.2950 -79.7728 214° Southwest 467 537 34,000  Level Atlanta Center
Tue 05:21:29 PM 36.1853 -79.8558 211° Southwest 467 537 34,000  Level Atlanta Center
Tue 05:22:29 PM 36.0694 -79.9544 215° Southwest 439 505 34,000  Level Atlanta Center
Tue 05:23:29 PM 35.9528 -80.0217 205° Southwest 445 512 34,000  Level Atlanta Center
Tue 05:24:29 PM 35.8297 -80.0817 202° Southwest 463 533 34,000 50 Level Atlanta Center
Tue 05:25:29 PM 35.7064 -80.1439 202° Southwest 468 539 34,100  Climbing Atlanta Center
Tue 05:26:29 PM 35.5917 -80.2031 203° Southwest 487 560 34,000  Descending Atlanta Center
Tue 05:27:29 PM 35.4703 -80.2647 202° Southwest 487 560 34,100  Climbing Atlanta Center
Tue 05:28:29 PM 35.3492 -80.3264 203° Southwest 482 555 34,000 -50 Descending Atlanta Center
Tue 05:29:29 PM 35.2258 -80.3878 202° Southwest 482 555 34,000  Level Atlanta Center
Tue 05:30:29 PM 35.1025 -80.4492 202° Southwest 488 562 34,000 -22 Level Atlanta Center
Tue 05:33:56 PM 34.6700 -80.6636 202° Southwest 474 545 33,900  Descending Jacksonville Center
Tue 05:34:56 PM 34.5397 -80.7275 202° Southwest 492 566 34,000 50 Climbing Jacksonville Center
Tue 05:35:56 PM 34.4178 -80.7883 202° Southwest 487 560 34,000  Level Jacksonville Center
Tue 05:36:56 PM 34.2956 -80.8442 201° Southwest 480 552 34,000 -50 Level Jacksonville Center
Tue 05:37:56 PM 34.1794 -80.9019 202° Southwest 468 539 33,900  Descending Jacksonville Center
Tue 05:38:56 PM 34.0575 -80.9625 202° Southwest 468 539 34,000  Climbing Jacksonville Center
Tue 05:39:56 PM 33.9350 -81.0153 200° South 468 539 33,900 -50 Descending Jacksonville Center
Tue 05:40:56 PM 33.8014 -80.9981 174° South 458 527 33,900 50 Level Jacksonville Center
Tue 05:41:56 PM 33.6933 -80.8906 140° Southeast 448 516 34,000 50 Climbing Jacksonville Center
Tue 05:42:56 PM 33.5872 -80.7833 140° Southeast 469 540 34,000  Level Jacksonville Center
Tue 05:43:56 PM 33.4550 -80.7392 164° South 483 556 34,000  Level Jacksonville Center
Tue 05:44:56 PM 33.3281 -80.7719 192° South 456 525 34,000  Level Jacksonville Center
Tue 05:45:56 PM 33.2058 -80.8244 200° South 456 525 34,000  Level Jacksonville Center
Tue 05:46:56 PM 33.0858 -80.8794 201° Southwest 462 532 34,000  Level Jacksonville Center
Tue 05:47:56 PM 32.9656 -80.9292 199° South 462 532 34,000  Level Jacksonville Center
Tue 05:48:56 PM 32.8556 -80.9761 200° South 467 537 34,000  Level Jacksonville Center
Tue 05:49:56 PM 32.7353 -81.0281 200° South 467 537 34,000  Level Jacksonville Center
Tue 05:50:56 PM 32.6067 -81.0800 199° South 461 531 34,000  Level Jacksonville Center
Tue 05:51:56 PM 32.4986 -81.1264 200° South 466 536 34,000 -400 Level Jacksonville Center
Tue 05:52:56 PM 32.3719 -81.1781 199° South 471 542 33,200 -1,200 Descending Jacksonville Center
Tue 05:53:56 PM 32.2497 -81.2319 200° South 476 548 31,600 -1,600 Descending Jacksonville Center
Tue 05:54:56 PM 32.1208 -81.2833 199° South 487 560 30,000 -1,550 Descending Jacksonville Center
Tue 05:55:56 PM 31.9919 -81.3372 200° South 487 560 28,500 -1,600 Descending Jacksonville Center
Tue 05:56:56 PM 31.8508 -81.3958 199° South 487 560 26,800 -1,500 Descending Jacksonville Center
Tue 05:57:56 PM 31.7344 -81.4439 199° South 492 566 25,500 -1,300 Descending Jacksonville Center
Tue 05:58:56 PM 31.5953 -81.5022 200° South 492 566 24,200 -1,200 Descending Jacksonville Center
Tue 05:59:56 PM 31.4706 -81.5528 199° South 483 556 23,100 -1,200 Descending Jacksonville Center
Tue 06:00:56 PM 31.3458 -81.6083 201° Southwest 483 556 21,800 -1,250 Descending Jacksonville Center
Tue 06:01:56 PM 31.2250 -81.6561 199° South 477 549 20,600 -900 Descending Jacksonville Center
Tue 06:02:56 PM 31.1067 -81.7036 199° South 459 528 20,000 -350 Descending Jacksonville Center
Tue 06:03:56 PM 30.9900 -81.7536 200° South 459 528 19,900 -50 Descending Jacksonville Center
Tue 06:04:56 PM 30.8756 -81.7986 199° South 454 522 19,900 50 Level Jacksonville Center
Tue 06:05:56 PM 30.7611 -81.8458 200° South 441 507 20,000  Climbing Jacksonville Center
Tue 06:06:56 PM 30.6508 -81.8906 199° South 431 496 19,900  Descending Jacksonville Center
Tue 06:07:56 PM 30.5489 -81.9253 196° South 424 488 20,000 50 Climbing Jacksonville Center
Tue 06:08:56 PM 30.4364 -81.9697 199° South 424 488 20,000 -50 Level Jacksonville Center
Tue 06:09:56 PM 30.3283 -82.0167 201° Southwest 424 488 19,900 -180 Descending Jacksonville Center
Tue 06:10:36 PM 30.2408 -82.0558 201° Southwest 421 484 19,700 -500 Descending Jacksonville Center
Tue 06:10:56 PM 30.2158 -82.0608 190° South 424 488 19,400 -1,612 Descending Jacksonville Center
Tue 06:11:43 PM 30.1200 -82.1050 202° Southwest 419 482 17,900 -2,000 Descending Jacksonville Center
Tue 06:12:44 PM 30.0056 -82.1492 198° South 406 467 15,800 -2,557 Descending Jacksonville Center
Tue 06:13:45 PM 29.9033 -82.1906 199° South 388 447 12,700 -2,656 Descending Jacksonville Center
Tue 06:14:46 PM 29.7992 -82.2294 198° South 380 437 10,400 -1,966 Descending Jacksonville Center
Tue 06:15:41 PM 29.7283 -82.2636 203° Southwest 271 312 8,900 -1,714 Descending Jacksonville Center
Tue 06:15:56 PM 29.7200 -82.2611 165° South 353 406 8,400 -2,066 Descending Jacksonville Center
Tue 06:16:42 PM 29.6533 -82.2736 189° South 284 327 6,800 -1,794 Descending Jacksonville Center
Tue 06:17:43 PM 29.5739 -82.2644 174° South 281 323 5,200 -1,525 Descending Jacksonville Center
Tue 06:18:44 PM 29.4986 -82.2556 174° South 275 316 3,700 -1,033 Descending Jacksonville Center
Tue 06:19:45 PM 29.4214 -82.2489 176° South 254 292 3,100 -295 Descending Jacksonville Center
Tue 06:20:46 PM 29.3547 -82.2444 177° South 242 278 3,100  Level Jacksonville Center
Tue 06:21:41 PM 29.2919 -82.2544 188° South 255 293 3,100 -104 Level Jacksonville Center
Tue 06:22:41 PM 29.2275 -82.2667 189° South 226 260 2,900 -496 Descending Jacksonville Center
Tue 06:23:42 PM 29.1689 -82.2694 182° South 206 237 2,100 -738 Descending Jacksonville Center
Tue 06:24:43 PM 29.1189 -82.2650 176° South 174 200 1,400 -689 Descending Jacksonville Center
Tue 06:25:44 PM 29.1311 -82.2269 70° East 131 151 700 -443 Descending Jacksonville Center
Tue 06:26:45 PM 29.1561 -82.2267 North 125 144 500 -197 Descending Jacksonville Center

Login

Don't have an account? Register now (free) for customized features, flight alerts, and more!